createdAt,value
2022-08-03T00:02:04.431Z,1
2022-08-03T00:12:04.518Z,1
2022-08-03T00:22:04.627Z,1
2022-08-03T00:32:04.553Z,1
2022-08-03T00:42:04.618Z,1
2022-08-03T00:52:07.778Z,1
2022-08-03T01:02:04.605Z,1
2022-08-03T01:12:04.505Z,1
2022-08-03T01:22:04.615Z,1
2022-08-03T01:32:52.342Z,1
2022-08-03T01:42:04.607Z,1
2022-08-03T01:52:05.446Z,1
2022-08-03T02:02:15.730Z,1
2022-08-03T02:12:04.727Z,1
2022-08-03T02:22:04.597Z,1
2022-08-03T02:32:04.693Z,1
2022-08-03T02:42:04.591Z,1
2022-08-03T02:52:04.679Z,1
2022-08-03T03:02:04.795Z,1
2022-08-03T03:12:04.685Z,1
2022-08-03T03:22:04.780Z,1
2022-08-03T03:32:04.700Z,1
2022-08-03T03:42:04.807Z,1
2022-08-03T03:52:04.674Z,1
2022-08-03T04:02:04.775Z,4
2022-08-03T04:12:04.670Z,23
2022-08-03T04:22:04.769Z,53
2022-08-03T04:32:04.857Z,69
2022-08-03T04:42:08.473Z,77
2022-08-03T04:52:04.868Z,78
2022-08-03T05:02:04.843Z,83
2022-08-03T05:12:04.889Z,82
2022-08-03T05:22:04.759Z,81
2022-08-03T05:32:08.129Z,88
2022-08-03T05:42:04.768Z,85
2022-08-03T05:52:12.644Z,93
2022-08-03T06:02:04.982Z,95
2022-08-03T06:12:04.852Z,94
2022-08-03T06:22:04.961Z,94
2022-08-03T06:32:04.901Z,96
2022-08-03T06:42:04.985Z,98
2022-08-03T06:52:06.831Z,98
2022-08-03T07:02:04.943Z,98
2022-08-03T07:12:05.054Z,99
2022-08-03T07:22:04.963Z,99
2022-08-03T07:32:05.079Z,99
2022-08-03T07:42:04.972Z,99
2022-08-03T07:52:05.080Z,99
2022-08-03T08:02:05.001Z,99
2022-08-03T08:12:05.073Z,98
2022-08-03T08:22:05.084Z,97
2022-08-03T08:32:05.081Z,98
2022-08-03T08:42:04.964Z,98
2022-08-03T08:52:05.075Z,98
2022-08-03T09:02:04.975Z,98
2022-08-03T09:12:21.043Z,97
2022-08-03T09:22:05.180Z,97
2022-08-03T09:32:05.123Z,97
2022-08-03T09:42:05.210Z,97
2022-08-03T09:52:11.083Z,98
2022-08-03T10:02:05.168Z,97
2022-08-03T10:12:05.082Z,97
2022-08-03T10:22:05.245Z,97
2022-08-03T10:32:05.075Z,97
2022-08-03T10:42:05.493Z,97
2022-08-03T10:52:08.446Z,97
2022-08-03T11:02:05.153Z,97
2022-08-03T11:12:05.257Z,97
2022-08-03T11:22:05.191Z,97
2022-08-03T11:32:05.293Z,96
2022-08-03T11:42:05.152Z,96
2022-08-03T11:52:05.252Z,97
2022-08-03T12:02:05.147Z,96
2022-08-03T12:12:05.237Z,96
2022-08-03T12:22:05.337Z,96
2022-08-03T12:32:05.232Z,96
2022-08-03T12:42:05.340Z,96
2022-08-03T12:52:07.547Z,96
2022-08-03T13:02:09.255Z,96
2022-08-03T13:12:05.238Z,96
2022-08-03T13:22:05.325Z,96
2022-08-03T13:32:05.433Z,96
2022-08-03T13:42:05.315Z,96
2022-08-03T13:52:05.424Z,96
2022-08-03T14:02:05.381Z,97
2022-08-03T14:12:07.854Z,97
2022-08-03T14:22:06.177Z,97
2022-08-03T14:32:10.747Z,96
2022-08-03T14:42:05.313Z,96
2022-08-03T14:52:05.410Z,97
2022-08-03T15:02:08.800Z,97
2022-08-03T15:12:05.398Z,97
2022-08-03T15:22:05.507Z,97
2022-08-03T15:32:09.123Z,97
2022-08-03T15:42:05.520Z,97
2022-08-03T15:52:05.396Z,97
2022-08-03T16:02:05.485Z,97
2022-08-03T16:12:05.597Z,96
2022-08-03T16:22:05.499Z,95
2022-08-03T16:32:09.138Z,95
2022-08-03T16:42:05.491Z,95
2022-08-03T16:52:05.581Z,96
2022-08-03T17:02:10.084Z,94
2022-08-03T17:12:05.614Z,92
2022-08-03T17:22:05.480Z,93
2022-08-03T17:32:09.737Z,93
2022-08-03T17:42:17.091Z,94
2022-08-03T17:52:05.564Z,95
2022-08-03T18:02:13.293Z,93
2022-08-03T18:12:05.591Z,92
2022-08-03T18:22:05.690Z,92
2022-08-03T18:32:11.465Z,93
2022-08-03T18:42:06.031Z,89
2022-08-03T18:52:12.109Z,87
2022-08-03T19:02:06.602Z,79
2022-08-03T19:12:11.544Z,83
2022-08-03T19:22:05.658Z,83
2022-08-03T19:32:05.982Z,84
2022-08-03T19:42:06.367Z,77
2022-08-03T19:52:05.790Z,71
2022-08-03T20:02:05.652Z,60
2022-08-03T20:12:05.749Z,46
2022-08-03T20:22:05.836Z,24
2022-08-03T20:32:05.740Z,11
2022-08-03T20:42:05.844Z,4
2022-08-03T20:52:05.766Z,2
2022-08-03T21:02:05.864Z,2
2022-08-03T21:12:05.719Z,2
2022-08-03T21:22:05.828Z,2
2022-08-03T21:32:05.742Z,1
2022-08-03T21:42:05.828Z,1
2022-08-03T21:52:05.751Z,1
2022-08-03T22:02:05.922Z,1
2022-08-03T22:12:05.940Z,1
2022-08-03T22:22:05.881Z,1
2022-08-03T22:32:05.976Z,1
2022-08-03T22:42:05.840Z,1
2022-08-03T22:52:05.929Z,1
2022-08-03T23:02:14.991Z,1
2022-08-03T23:12:05.935Z,1
2022-08-03T23:22:06.041Z,1
2022-08-03T23:32:05.936Z,1
2022-08-03T23:42:06.056Z,1
2022-08-03T23:52:05.956Z,1
